sensor_id;sensor_type;location;lat;lon;timestamp;noise_LAeq;noise_LA_min;noise_LA_max;noise_LA01;noise_LA95
76217;Laerm;65010;50.190;18.930;2024-02-21T00:01:15;41.65;39.33;43.78;;
76217;Laerm;65010;50.190;18.930;2024-02-21T00:04:23;41.67;39.39;43.77;;
76217;Laerm;65010;50.190;18.930;2024-02-21T00:07:29;41.67;38.75;44.41;;
76217;Laerm;65010;50.190;18.930;2024-02-21T00:10:38;41.66;37.22;43.81;;
76217;Laerm;65010;50.190;18.930;2024-02-21T00:13:44;41.50;38.85;43.46;;
76217;Laerm;65010;50.190;18.930;2024-02-21T00:16:51;41.47;38.87;43.43;;
76217;Laerm;65010;50.190;18.930;2024-02-21T00:19:57;41.47;38.49;43.69;;
76217;Laerm;65010;50.190;18.930;2024-02-21T00:23:04;41.53;37.56;43.46;;
76217;Laerm;65010;50.190;18.930;2024-02-21T00:26:12;41.55;38.38;43.66;;
76217;Laerm;65010;50.190;18.930;2024-02-21T00:29:19;41.53;38.29;43.63;;
76217;Laerm;65010;50.190;18.930;2024-02-21T00:32:25;41.53;38.37;43.53;;
76217;Laerm;65010;50.190;18.930;2024-02-21T00:35:31;41.51;38.44;43.61;;
76217;Laerm;65010;50.190;18.930;2024-02-21T00:38:37;41.47;38.02;43.79;;
76217;Laerm;65010;50.190;18.930;2024-02-21T00:41:46;41.47;37.96;43.49;;
76217;Laerm;65010;50.190;18.930;2024-02-21T00:44:52;41.48;38.67;43.83;;
76217;Laerm;65010;50.190;18.930;2024-02-21T00:47:59;41.44;37.72;43.49;;
76217;Laerm;65010;50.190;18.930;2024-02-21T00:51:04;41.45;37.94;43.40;;
76217;Laerm;65010;50.190;18.930;2024-02-21T00:54:11;41.44;37.97;43.95;;
76217;Laerm;65010;50.190;18.930;2024-02-21T00:57:20;41.46;35.55;43.25;;
76217;Laerm;65010;50.190;18.930;2024-02-21T01:00:27;41.53;38.25;43.41;;
76217;Laerm;65010;50.190;18.930;2024-02-21T01:03:32;41.65;39.09;44.13;;
76217;Laerm;65010;50.190;18.930;2024-02-21T01:06:39;41.55;38.21;43.40;;
76217;Laerm;65010;50.190;18.930;2024-02-21T01:09:46;41.46;35.23;44.14;;
76217;Laerm;65010;50.190;18.930;2024-02-21T01:12:57;41.58;38.65;43.58;;
76217;Laerm;65010;50.190;18.930;2024-02-21T01:16:03;41.58;38.23;43.69;;
76217;Laerm;65010;50.190;18.930;2024-02-21T01:19:10;41.54;38.18;43.59;;
76217;Laerm;65010;50.190;18.930;2024-02-21T01:22:16;41.62;38.53;43.50;;
76217;Laerm;65010;50.190;18.930;2024-02-21T01:25:23;41.67;38.84;43.56;;
76217;Laerm;65010;50.190;18.930;2024-02-21T01:28:31;41.60;37.67;43.54;;
76217;Laerm;65010;50.190;18.930;2024-02-21T01:31:38;41.66;39.17;43.84;;
76217;Laerm;65010;50.190;18.930;2024-02-21T01:34:44;41.65;39.42;44.04;;
76217;Laerm;65010;50.190;18.930;2024-02-21T01:37:50;41.60;38.49;43.56;;
76217;Laerm;65010;50.190;18.930;2024-02-21T01:40:56;41.61;38.09;43.74;;
76217;Laerm;65010;50.190;18.930;2024-02-21T01:44:06;41.61;36.17;44.24;;
76217;Laerm;65010;50.190;18.930;2024-02-21T01:47:12;41.63;38.11;43.71;;
76217;Laerm;65010;50.190;18.930;2024-02-21T01:50:23;41.64;39.35;43.57;;
76217;Laerm;65010;50.190;18.930;2024-02-21T01:53:34;41.63;39.45;43.67;;
76217;Laerm;65010;50.190;18.930;2024-02-21T01:56:42;41.64;39.48;43.71;;
76217;Laerm;65010;50.190;18.930;2024-02-21T01:59:51;41.62;37.96;43.97;;
76217;Laerm;65010;50.190;18.930;2024-02-21T02:02:58;41.52;35.04;43.95;;
76217;Laerm;65010;50.190;18.930;2024-02-21T02:06:06;41.56;38.75;43.65;;
76217;Laerm;65010;50.190;18.930;2024-02-21T02:09:13;41.55;38.56;43.38;;
76217;Laerm;65010;50.190;18.930;2024-02-21T02:12:18;41.56;37.92;43.79;;
76217;Laerm;65010;50.190;18.930;2024-02-21T02:15:38;41.61;39.09;43.70;;
76217;Laerm;65010;50.190;18.930;2024-02-21T02:18:44;41.63;38.79;44.02;;
76217;Laerm;65010;50.190;18.930;2024-02-21T02:21:58;41.54;35.49;43.43;;
76217;Laerm;65010;50.190;18.930;2024-02-21T02:25:08;41.55;38.44;43.40;;
76217;Laerm;65010;50.190;18.930;2024-02-21T02:28:15;41.52;37.91;43.39;;
76217;Laerm;65010;50.190;18.930;2024-02-21T02:31:21;41.54;38.79;43.42;;
76217;Laerm;65010;50.190;18.930;2024-02-21T02:34:28;41.53;35.24;43.96;;
76217;Laerm;65010;50.190;18.930;2024-02-21T02:37:34;41.56;38.97;43.62;;
76217;Laerm;65010;50.190;18.930;2024-02-21T02:40:45;41.58;38.48;43.95;;
76217;Laerm;65010;50.190;18.930;2024-02-21T02:43:51;41.57;38.57;43.99;;
76217;Laerm;65010;50.190;18.930;2024-02-21T02:46:57;41.58;38.20;43.61;;
76217;Laerm;65010;50.190;18.930;2024-02-21T02:50:05;41.58;38.68;43.46;;
76217;Laerm;65010;50.190;18.930;2024-02-21T02:53:12;41.58;38.49;43.90;;
76217;Laerm;65010;50.190;18.930;2024-02-21T02:56:20;41.62;38.72;43.82;;
76217;Laerm;65010;50.190;18.930;2024-02-21T02:59:26;41.65;39.63;43.63;;
76217;Laerm;65010;50.190;18.930;2024-02-21T03:02:32;41.65;39.35;43.66;;
76217;Laerm;65010;50.190;18.930;2024-02-21T03:05:39;41.66;39.28;43.69;;
76217;Laerm;65010;50.190;18.930;2024-02-21T03:08:45;41.57;35.82;43.68;;
76217;Laerm;65010;50.190;18.930;2024-02-21T03:11:54;41.64;38.74;43.78;;
76217;Laerm;65010;50.190;18.930;2024-02-21T03:15:06;41.59;37.75;43.74;;
76217;Laerm;65010;50.190;18.930;2024-02-21T03:18:13;41.58;37.85;43.68;;
76217;Laerm;65010;50.190;18.930;2024-02-21T03:21:19;41.25;34.96;43.65;;
76217;Laerm;65010;50.190;18.930;2024-02-21T03:24:25;40.30;34.71;43.93;;
76217;Laerm;65010;50.190;18.930;2024-02-21T03:27:35;40.20;34.68;43.74;;
76217;Laerm;65010;50.190;18.930;2024-02-21T03:30:42;40.75;34.86;43.82;;
76217;Laerm;65010;50.190;18.930;2024-02-21T03:33:48;40.35;34.77;43.78;;
76217;Laerm;65010;50.190;18.930;2024-02-21T03:36:54;40.22;34.63;43.65;;
76217;Laerm;65010;50.190;18.930;2024-02-21T03:40:00;40.27;34.45;44.04;;
76217;Laerm;65010;50.190;18.930;2024-02-21T03:43:09;40.06;34.71;43.70;;
76217;Laerm;65010;50.190;18.930;2024-02-21T03:46:15;40.82;34.54;44.10;;
76217;Laerm;65010;50.190;18.930;2024-02-21T03:49:21;40.78;34.75;44.01;;
76217;Laerm;65010;50.190;18.930;2024-02-21T03:52:27;40.60;34.77;43.45;;
76217;Laerm;65010;50.190;18.930;2024-02-21T03:55:34;40.92;34.71;43.94;;
76217;Laerm;65010;50.190;18.930;2024-02-21T03:58:42;41.73;35.38;43.94;;
76217;Laerm;65010;50.190;18.930;2024-02-21T04:01:52;41.66;34.90;44.18;;
76217;Laerm;65010;50.190;18.930;2024-02-21T04:04:58;41.76;35.37;44.50;;
76217;Laerm;65010;50.190;18.930;2024-02-21T04:08:06;41.64;34.97;44.22;;
76217;Laerm;65010;50.190;18.930;2024-02-21T04:11:12;41.43;34.95;43.58;;
76217;Laerm;65010;50.190;18.930;2024-02-21T04:14:21;41.24;34.80;44.21;;
76217;Laerm;65010;50.190;18.930;2024-02-21T04:17:27;41.15;34.91;43.68;;
76217;Laerm;65010;50.190;18.930;2024-02-21T04:20:34;41.26;34.59;43.80;;
76217;Laerm;65010;50.190;18.930;2024-02-21T04:23:40;41.25;34.52;43.80;;
76217;Laerm;65010;50.190;18.930;2024-02-21T04:26:47;41.22;34.75;44.33;;
76217;Laerm;65010;50.190;18.930;2024-02-21T04:29:56;41.25;34.73;43.47;;
76217;Laerm;65010;50.190;18.930;2024-02-21T04:33:03;41.25;34.87;44.15;;
76217;Laerm;65010;50.190;18.930;2024-02-21T04:36:09;40.81;34.61;43.95;;
76217;Laerm;65010;50.190;18.930;2024-02-21T04:39:16;41.24;34.86;43.51;;
76217;Laerm;65010;50.190;18.930;2024-02-21T04:42:21;41.07;34.88;43.49;;
76217;Laerm;65010;50.190;18.930;2024-02-21T04:45:31;40.63;34.80;43.90;;
76217;Laerm;65010;50.190;18.930;2024-02-21T04:48:36;40.67;34.69;43.87;;
76217;Laerm;65010;50.190;18.930;2024-02-21T04:51:43;40.78;34.91;43.31;;
76217;Laerm;65010;50.190;18.930;2024-02-21T04:54:48;40.73;34.81;43.68;;
76217;Laerm;65010;50.190;18.930;2024-02-21T04:57:55;40.46;34.83;43.69;;
76217;Laerm;65010;50.190;18.930;2024-02-21T05:01:04;40.56;34.43;43.41;;
76217;Laerm;65010;50.190;18.930;2024-02-21T05:04:11;40.60;34.88;43.55;;
76217;Laerm;65010;50.190;18.930;2024-02-21T05:07:17;40.97;34.69;43.64;;
76217;Laerm;65010;50.190;18.930;2024-02-21T05:10:23;40.80;34.72;43.83;;
76217;Laerm;65010;50.190;18.930;2024-02-21T05:13:29;40.85;34.70;43.59;;
76217;Laerm;65010;50.190;18.930;2024-02-21T05:16:41;40.64;34.78;43.47;;
76217;Laerm;65010;50.190;18.930;2024-02-21T05:19:47;40.90;34.49;43.74;;
76217;Laerm;65010;50.190;18.930;2024-02-21T05:22:54;40.84;34.69;43.68;;
76217;Laerm;65010;50.190;18.930;2024-02-21T05:26:00;41.02;34.89;43.53;;
76217;Laerm;65010;50.190;18.930;2024-02-21T05:29:06;41.13;34.77;43.75;;
76217;Laerm;65010;50.190;18.930;2024-02-21T05:32:15;40.95;34.74;43.96;;
76217;Laerm;65010;50.190;18.930;2024-02-21T05:35:26;40.79;34.76;43.99;;
76217;Laerm;65010;50.190;18.930;2024-02-21T05:38:32;40.62;34.64;43.58;;
76217;Laerm;65010;50.190;18.930;2024-02-21T05:41:39;40.83;34.81;43.92;;
76217;Laerm;65010;50.190;18.930;2024-02-21T05:44:45;40.54;34.79;43.82;;
76217;Laerm;65010;50.190;18.930;2024-02-21T05:47:54;40.70;34.33;43.50;;
76217;Laerm;65010;50.190;18.930;2024-02-21T05:51:02;40.94;34.86;43.97;;
76217;Laerm;65010;50.190;18.930;2024-02-21T05:54:09;41.29;34.75;43.55;;
76217;Laerm;65010;50.190;18.930;2024-02-21T05:57:16;41.58;34.99;43.75;;
76217;Laerm;65010;50.190;18.930;2024-02-21T06:00:23;41.49;34.79;43.84;;
76217;Laerm;65010;50.190;18.930;2024-02-21T06:03:32;41.50;34.65;43.70;;
76217;Laerm;65010;50.190;18.930;2024-02-21T06:06:39;41.33;34.85;43.69;;
76217;Laerm;65010;50.190;18.930;2024-02-21T06:09:45;41.56;34.91;43.81;;
76217;Laerm;65010;50.190;18.930;2024-02-21T06:12:51;41.54;34.88;44.22;;
76217;Laerm;65010;50.190;18.930;2024-02-21T06:15:57;41.38;34.68;44.10;;
76217;Laerm;65010;50.190;18.930;2024-02-21T06:19:06;41.37;34.95;43.69;;
76217;Laerm;65010;50.190;18.930;2024-02-21T06:22:12;41.46;35.10;43.60;;
76217;Laerm;65010;50.190;18.930;2024-02-21T06:25:19;41.38;34.83;44.02;;
76217;Laerm;65010;50.190;18.930;2024-02-21T06:28:25;41.55;35.03;43.80;;
76217;Laerm;65010;50.190;18.930;2024-02-21T06:31:31;41.50;35.15;43.71;;
76217;Laerm;65010;50.190;18.930;2024-02-21T06:34:40;41.45;34.77;43.75;;
76217;Laerm;65010;50.190;18.930;2024-02-21T06:37:47;41.43;34.96;43.47;;
76217;Laerm;65010;50.190;18.930;2024-02-21T06:40:54;41.54;34.67;43.84;;
76217;Laerm;65010;50.190;18.930;2024-02-21T06:44:02;41.51;34.94;44.05;;
76217;Laerm;65010;50.190;18.930;2024-02-21T06:47:08;41.46;34.92;43.69;;
76217;Laerm;65010;50.190;18.930;2024-02-21T06:50:18;41.59;34.75;44.03;;
76217;Laerm;65010;50.190;18.930;2024-02-21T06:53:24;41.51;34.94;43.79;;
76217;Laerm;65010;50.190;18.930;2024-02-21T06:56:33;41.51;34.75;44.12;;
76217;Laerm;65010;50.190;18.930;2024-02-21T06:59:39;41.41;34.54;43.66;;
76217;Laerm;65010;50.190;18.930;2024-02-21T07:02:46;41.41;34.83;43.56;;
76217;Laerm;65010;50.190;18.930;2024-02-21T07:05:54;41.55;34.77;43.81;;
76217;Laerm;65010;50.190;18.930;2024-02-21T07:09:01;41.59;35.02;43.75;;
76217;Laerm;65010;50.190;18.930;2024-02-21T07:12:07;41.47;34.80;43.88;;
76217;Laerm;65010;50.190;18.930;2024-02-21T07:15:14;41.49;34.98;43.77;;
76217;Laerm;65010;50.190;18.930;2024-02-21T07:18:20;41.45;34.85;43.72;;
76217;Laerm;65010;50.190;18.930;2024-02-21T07:21:31;41.32;34.74;43.52;;
76217;Laerm;65010;50.190;18.930;2024-02-21T07:24:37;41.23;34.74;43.57;;
76217;Laerm;65010;50.190;18.930;2024-02-21T07:27:44;41.41;34.71;43.67;;
76217;Laerm;65010;50.190;18.930;2024-02-21T07:30:50;41.39;34.87;43.82;;
76217;Laerm;65010;50.190;18.930;2024-02-21T07:33:57;41.49;35.28;43.58;;
76217;Laerm;65010;50.190;18.930;2024-02-21T07:37:06;41.47;35.08;43.66;;
76217;Laerm;65010;50.190;18.930;2024-02-21T07:40:13;41.35;34.91;43.86;;
76217;Laerm;65010;50.190;18.930;2024-02-21T07:43:19;41.34;34.95;43.41;;
76217;Laerm;65010;50.190;18.930;2024-02-21T07:46:26;41.33;34.94;43.37;;
76217;Laerm;65010;50.190;18.930;2024-02-21T07:49:32;41.27;35.07;43.76;;
76217;Laerm;65010;50.190;18.930;2024-02-21T07:52:41;41.40;34.75;43.54;;
76217;Laerm;65010;50.190;18.930;2024-02-21T07:55:47;41.42;34.79;43.53;;
76217;Laerm;65010;50.190;18.930;2024-02-21T07:58:53;41.53;34.87;44.06;;
76217;Laerm;65010;50.190;18.930;2024-02-21T08:01:59;41.33;34.88;43.50;;
76217;Laerm;65010;50.190;18.930;2024-02-21T08:05:10;41.36;34.81;43.53;;
76217;Laerm;65010;50.190;18.930;2024-02-21T08:08:19;41.36;35.06;43.25;;
76217;Laerm;65010;50.190;18.930;2024-02-21T08:11:26;41.40;34.85;43.95;;
76217;Laerm;65010;50.190;18.930;2024-02-21T08:14:32;41.28;34.86;43.40;;
76217;Laerm;65010;50.190;18.930;2024-02-21T08:17:38;41.16;34.66;43.29;;
76217;Laerm;65010;50.190;18.930;2024-02-21T08:20:44;41.30;34.86;43.54;;
76217;Laerm;65010;50.190;18.930;2024-02-21T08:23:54;41.11;34.83;43.49;;
76217;Laerm;65010;50.190;18.930;2024-02-21T08:27:00;40.88;34.74;43.23;;
76217;Laerm;65010;50.190;18.930;2024-02-21T08:30:08;41.04;34.95;43.55;;
76217;Laerm;65010;50.190;18.930;2024-02-21T08:33:15;41.03;34.39;43.40;;
76217;Laerm;65010;50.190;18.930;2024-02-21T08:36:23;41.09;34.63;43.60;;
76217;Laerm;65010;50.190;18.930;2024-02-21T08:39:32;41.00;34.88;43.49;;
76217;Laerm;65010;50.190;18.930;2024-02-21T08:42:39;40.80;34.61;43.26;;
76217;Laerm;65010;50.190;18.930;2024-02-21T08:45:45;40.96;34.78;43.08;;
76217;Laerm;65010;50.190;18.930;2024-02-21T08:48:52;40.89;34.84;43.34;;
76217;Laerm;65010;50.190;18.930;2024-02-21T08:51:58;41.16;34.60;43.39;;
76217;Laerm;65010;50.190;18.930;2024-02-21T08:55:09;40.84;34.56;43.53;;
76217;Laerm;65010;50.190;18.930;2024-02-21T08:58:14;40.91;34.73;43.47;;
76217;Laerm;65010;50.190;18.930;2024-02-21T09:01:24;40.93;34.76;43.20;;
76217;Laerm;65010;50.190;18.930;2024-02-21T09:04:30;40.99;34.88;43.45;;
76217;Laerm;65010;50.190;18.930;2024-02-21T09:07:37;41.11;35.15;43.43;;
76217;Laerm;65010;50.190;18.930;2024-02-21T09:10:45;40.88;34.82;43.26;;
76217;Laerm;65010;50.190;18.930;2024-02-21T09:13:52;40.79;35.08;43.22;;
76217;Laerm;65010;50.190;18.930;2024-02-21T09:16:58;40.48;34.76;43.16;;
76217;Laerm;65010;50.190;18.930;2024-02-21T09:20:07;40.68;34.91;43.25;;
76217;Laerm;65010;50.190;18.930;2024-02-21T09:23:15;40.78;34.89;43.08;;
76217;Laerm;65010;50.190;18.930;2024-02-21T09:26:25;40.67;35.03;42.98;;
76217;Laerm;65010;50.190;18.930;2024-02-21T09:29:31;40.73;34.65;43.11;;
76217;Laerm;65010;50.190;18.930;2024-02-21T09:32:39;40.54;34.78;43.08;;
76217;Laerm;65010;50.190;18.930;2024-02-21T09:35:45;40.54;35.04;43.38;;
76217;Laerm;65010;50.190;18.930;2024-02-21T09:38:53;40.10;34.66;43.02;;
76217;Laerm;65010;50.190;18.930;2024-02-21T09:42:06;40.56;34.63;43.52;;
76217;Laerm;65010;50.190;18.930;2024-02-21T09:45:20;40.51;34.80;43.28;;
76217;Laerm;65010;50.190;18.930;2024-02-21T09:48:54;40.54;34.83;43.08;;
76217;Laerm;65010;50.190;18.930;2024-02-21T09:52:06;40.53;34.69;43.05;;
76217;Laerm;65010;50.190;18.930;2024-02-21T09:55:15;40.59;34.96;43.36;;
76217;Laerm;65010;50.190;18.930;2024-02-21T09:58:26;40.70;34.88;43.28;;
76217;Laerm;65010;50.190;18.930;2024-02-21T10:01:32;40.79;34.93;43.24;;
76217;Laerm;65010;50.190;18.930;2024-02-21T10:04:40;40.63;34.90;42.90;;
76217;Laerm;65010;50.190;18.930;2024-02-21T10:07:48;40.69;34.84;43.36;;
76217;Laerm;65010;50.190;18.930;2024-02-21T10:10:56;40.81;34.82;43.23;;
76217;Laerm;65010;50.190;18.930;2024-02-21T10:14:06;40.67;34.89;43.39;;
76217;Laerm;65010;50.190;18.930;2024-02-21T10:17:17;40.63;35.02;43.13;;
76217;Laerm;65010;50.190;18.930;2024-02-21T10:20:23;40.81;34.95;42.80;;
76217;Laerm;65010;50.190;18.930;2024-02-21T10:23:29;40.95;35.02;42.96;;
76217;Laerm;65010;50.190;18.930;2024-02-21T10:26:45;40.93;34.93;43.34;;
76217;Laerm;65010;50.190;18.930;2024-02-21T10:29:56;40.95;34.84;43.11;;
76217;Laerm;65010;50.190;18.930;2024-02-21T10:33:02;40.98;34.94;43.64;;
76217;Laerm;65010;50.190;18.930;2024-02-21T10:36:10;41.18;35.18;43.17;;
76217;Laerm;65010;50.190;18.930;2024-02-21T10:39:16;40.96;34.90;43.14;;
76217;Laerm;65010;50.190;18.930;2024-02-21T10:42:28;40.49;34.75;42.86;;
76217;Laerm;65010;50.190;18.930;2024-02-21T10:45:37;40.51;34.90;43.38;;
76217;Laerm;65010;50.190;18.930;2024-02-21T10:48:45;40.64;34.70;43.43;;
76217;Laerm;65010;50.190;18.930;2024-02-21T10:52:06;40.63;34.65;43.41;;
76217;Laerm;65010;50.190;18.930;2024-02-21T10:55:29;40.77;34.84;43.53;;
76217;Laerm;65010;50.190;18.930;2024-02-21T10:58:40;40.55;34.84;43.28;;
76217;Laerm;65010;50.190;18.930;2024-02-21T11:01:50;40.72;34.72;43.37;;
76217;Laerm;65010;50.190;18.930;2024-02-21T11:05:04;40.27;34.63;43.43;;
76217;Laerm;65010;50.190;18.930;2024-02-21T11:08:14;40.28;34.50;43.00;;
76217;Laerm;65010;50.190;18.930;2024-02-21T11:11:24;40.09;34.71;43.34;;
76217;Laerm;65010;50.190;18.930;2024-02-21T11:14:41;39.66;34.86;43.55;;
76217;Laerm;65010;50.190;18.930;2024-02-21T11:17:56;40.06;34.69;43.10;;
76217;Laerm;65010;50.190;18.930;2024-02-21T11:21:05;40.94;35.13;57.59;;
76217;Laerm;65010;50.190;18.930;2024-02-21T11:24:12;40.92;35.47;43.36;;
76217;Laerm;65010;50.190;18.930;2024-02-21T11:27:21;41.33;36.14;43.44;;
76217;Laerm;65010;50.190;18.930;2024-02-21T11:30:29;41.29;36.15;43.34;;
76217;Laerm;65010;50.190;18.930;2024-02-21T11:33:41;41.30;36.48;43.29;;
76217;Laerm;65010;50.190;18.930;2024-02-21T11:36:49;41.24;35.86;43.46;;
76217;Laerm;65010;50.190;18.930;2024-02-21T11:39:57;41.25;36.60;43.18;;
76217;Laerm;65010;50.190;18.930;2024-02-21T11:43:03;41.27;35.94;43.75;;
76217;Laerm;65010;50.190;18.930;2024-02-21T11:46:10;41.25;35.84;43.47;;
76217;Laerm;65010;50.190;18.930;2024-02-21T11:49:19;41.33;35.37;43.76;;
76217;Laerm;65010;50.190;18.930;2024-02-21T11:52:26;41.43;35.62;43.69;;
76217;Laerm;65010;50.190;18.930;2024-02-21T11:55:33;41.47;35.93;43.48;;
76217;Laerm;65010;50.190;18.930;2024-02-21T11:58:40;40.73;34.86;43.61;;
76217;Laerm;65010;50.190;18.930;2024-02-21T12:01:47;40.91;35.34;43.47;;
76217;Laerm;65010;50.190;18.930;2024-02-21T12:04:58;40.85;35.01;43.35;;
76217;Laerm;65010;50.190;18.930;2024-02-21T12:08:05;41.25;35.58;43.59;;
76217;Laerm;65010;50.190;18.930;2024-02-21T12:11:22;40.94;34.66;43.21;;
76217;Laerm;65010;50.190;18.930;2024-02-21T12:14:30;40.94;35.11;42.69;;
76217;Laerm;65010;50.190;18.930;2024-02-21T12:17:39;40.93;35.20;43.27;;
76217;Laerm;65010;50.190;18.930;2024-02-21T12:20:48;41.04;35.26;42.91;;
76217;Laerm;65010;50.190;18.930;2024-02-21T12:23:55;41.07;35.27;43.00;;
76217;Laerm;65010;50.190;18.930;2024-02-21T12:27:01;41.05;34.99;43.17;;
76217;Laerm;65010;50.190;18.930;2024-02-21T12:30:10;40.65;34.94;43.02;;
76217;Laerm;65010;50.190;18.930;2024-02-21T12:33:16;40.54;35.13;42.94;;
76217;Laerm;65010;50.190;18.930;2024-02-21T12:36:26;40.53;35.42;42.97;;
76217;Laerm;65010;50.190;18.930;2024-02-21T12:39:32;40.54;35.34;43.18;;
76217;Laerm;65010;50.190;18.930;2024-02-21T12:42:38;40.67;34.97;43.14;;
76217;Laerm;65010;50.190;18.930;2024-02-21T12:45:44;40.48;35.24;43.32;;
76217;Laerm;65010;50.190;18.930;2024-02-21T12:48:51;40.21;35.41;42.64;;
76217;Laerm;65010;50.190;18.930;2024-02-21T12:52:00;40.25;35.09;42.86;;
76217;Laerm;65010;50.190;18.930;2024-02-21T12:55:08;40.24;35.33;42.77;;
76217;Laerm;65010;50.190;18.930;2024-02-21T12:58:15;40.37;35.28;43.06;;
76217;Laerm;65010;50.190;18.930;2024-02-21T13:01:22;40.21;35.23;42.76;;
76217;Laerm;65010;50.190;18.930;2024-02-21T13:04:28;40.29;35.30;42.76;;
76217;Laerm;65010;50.190;18.930;2024-02-21T13:07:38;40.34;35.28;42.78;;
76217;Laerm;65010;50.190;18.930;2024-02-21T13:10:44;40.39;35.31;42.87;;
76217;Laerm;65010;50.190;18.930;2024-02-21T13:13:53;40.33;35.01;42.90;;
76217;Laerm;65010;50.190;18.930;2024-02-21T13:17:00;40.23;35.32;43.49;;
76217;Laerm;65010;50.190;18.930;2024-02-21T13:20:09;40.27;35.28;42.90;;
76217;Laerm;65010;50.190;18.930;2024-02-21T13:23:18;40.33;35.02;43.00;;
76217;Laerm;65010;50.190;18.930;2024-02-21T13:26:25;40.11;35.38;42.95;;
76217;Laerm;65010;50.190;18.930;2024-02-21T13:29:31;39.83;35.10;42.90;;
76217;Laerm;65010;50.190;18.930;2024-02-21T13:32:38;39.89;35.20;43.09;;
76217;Laerm;65010;50.190;18.930;2024-02-21T13:35:43;39.90;34.94;42.96;;
76217;Laerm;65010;50.190;18.930;2024-02-21T13:38:53;40.06;35.10;42.84;;
76217;Laerm;65010;50.190;18.930;2024-02-21T13:41:58;40.07;35.02;42.97;;
76217;Laerm;65010;50.190;18.930;2024-02-21T13:45:07;40.08;35.08;42.99;;
76217;Laerm;65010;50.190;18.930;2024-02-21T13:48:13;40.04;35.11;43.05;;
76217;Laerm;65010;50.190;18.930;2024-02-21T13:51:20;40.22;35.14;43.05;;
76217;Laerm;65010;50.190;18.930;2024-02-21T13:54:29;40.15;35.13;42.94;;
76217;Laerm;65010;50.190;18.930;2024-02-21T13:57:36;40.09;35.32;42.73;;
76217;Laerm;65010;50.190;18.930;2024-02-21T14:00:43;39.97;35.18;43.42;;
76217;Laerm;65010;50.190;18.930;2024-02-21T14:03:50;39.78;35.37;42.78;;
76217;Laerm;65010;50.190;18.930;2024-02-21T14:06:56;39.83;35.28;42.51;;
76217;Laerm;65010;50.190;18.930;2024-02-21T14:10:08;39.73;35.51;42.76;;
76217;Laerm;65010;50.190;18.930;2024-02-21T14:13:16;39.86;35.59;42.61;;
76217;Laerm;65010;50.190;18.930;2024-02-21T14:16:24;39.78;35.57;42.59;;
76217;Laerm;65010;50.190;18.930;2024-02-21T14:19:30;40.06;35.55;42.71;;
76217;Laerm;65010;50.190;18.930;2024-02-21T14:22:37;40.18;35.63;42.69;;
76217;Laerm;65010;50.190;18.930;2024-02-21T14:25:45;40.24;35.33;42.68;;
76217;Laerm;65010;50.190;18.930;2024-02-21T14:28:54;40.21;35.41;42.68;;
76217;Laerm;65010;50.190;18.930;2024-02-21T14:31:59;40.37;35.50;43.06;;
76217;Laerm;65010;50.190;18.930;2024-02-21T14:35:07;40.43;35.81;42.63;;
76217;Laerm;65010;50.190;18.930;2024-02-21T14:38:13;40.35;35.52;42.93;;
76217;Laerm;65010;50.190;18.930;2024-02-21T14:41:22;40.34;35.68;43.31;;
76217;Laerm;65010;50.190;18.930;2024-02-21T14:44:28;40.49;35.51;43.22;;
76217;Laerm;65010;50.190;18.930;2024-02-21T14:47:34;40.46;35.74;42.97;;
76217;Laerm;65010;50.190;18.930;2024-02-21T14:50:41;40.41;35.79;43.18;;
76217;Laerm;65010;50.190;18.930;2024-02-21T14:53:47;40.55;35.89;43.14;;
76217;Laerm;65010;50.190;18.930;2024-02-21T14:56:56;40.57;35.72;42.91;;
76217;Laerm;65010;50.190;18.930;2024-02-21T15:00:05;40.54;35.78;42.84;;
76217;Laerm;65010;50.190;18.930;2024-02-21T15:03:11;40.52;35.61;42.72;;
76217;Laerm;65010;50.190;18.930;2024-02-21T15:06:19;40.47;35.75;42.74;;
76217;Laerm;65010;50.190;18.930;2024-02-21T15:09:25;40.38;35.67;43.09;;
76217;Laerm;65010;50.190;18.930;2024-02-21T15:12:34;40.33;35.55;42.99;;
76217;Laerm;65010;50.190;18.930;2024-02-21T15:15:39;40.54;35.62;43.05;;
76217;Laerm;65010;50.190;18.930;2024-02-21T15:18:46;40.48;35.53;42.82;;
76217;Laerm;65010;50.190;18.930;2024-02-21T15:21:52;40.52;35.46;42.98;;
76217;Laerm;65010;50.190;18.930;2024-02-21T15:24:59;40.48;35.42;42.93;;
76217;Laerm;65010;50.190;18.930;2024-02-21T15:28:09;40.48;35.39;42.98;;
76217;Laerm;65010;50.190;18.930;2024-02-21T15:31:22;40.34;35.55;42.93;;
76217;Laerm;65010;50.190;18.930;2024-02-21T15:34:28;40.19;35.63;43.03;;
76217;Laerm;65010;50.190;18.930;2024-02-21T15:37:36;40.17;35.58;42.74;;
76217;Laerm;65010;50.190;18.930;2024-02-21T15:40:42;40.18;35.53;42.89;;
76217;Laerm;65010;50.190;18.930;2024-02-21T15:43:51;40.17;35.65;42.62;;
76217;Laerm;65010;50.190;18.930;2024-02-21T15:46:59;40.26;35.89;42.66;;
76217;Laerm;65010;50.190;18.930;2024-02-21T15:50:07;40.27;35.65;42.95;;
76217;Laerm;65010;50.190;18.930;2024-02-21T15:53:14;40.38;35.80;43.11;;
76217;Laerm;65010;50.190;18.930;2024-02-21T15:56:20;40.50;35.39;43.15;;
76217;Laerm;65010;50.190;18.930;2024-02-21T15:59:29;40.65;35.54;43.15;;
76217;Laerm;65010;50.190;18.930;2024-02-21T16:02:35;40.43;35.55;42.87;;
76217;Laerm;65010;50.190;18.930;2024-02-21T16:05:42;40.44;35.90;43.01;;
76217;Laerm;65010;50.190;18.930;2024-02-21T16:08:48;40.43;35.59;43.14;;
76217;Laerm;65010;50.190;18.930;2024-02-21T16:11:55;40.55;35.44;43.23;;
76217;Laerm;65010;50.190;18.930;2024-02-21T16:15:06;40.44;35.75;42.98;;
76217;Laerm;65010;50.190;18.930;2024-02-21T16:18:13;40.61;35.06;43.42;;
76217;Laerm;65010;50.190;18.930;2024-02-21T16:21:26;41.02;35.00;43.50;;
76217;Laerm;65010;50.190;18.930;2024-02-21T16:24:32;40.10;35.21;43.39;;
76217;Laerm;65010;50.190;18.930;2024-02-21T16:27:39;39.10;35.08;42.67;;
76217;Laerm;65010;50.190;18.930;2024-02-21T16:30:47;39.45;34.96;43.05;;
76217;Laerm;65010;50.190;18.930;2024-02-21T16:33:54;39.25;35.15;42.68;;
76217;Laerm;65010;50.190;18.930;2024-02-21T16:37:00;39.25;35.27;42.38;;
76217;Laerm;65010;50.190;18.930;2024-02-21T16:40:09;39.24;35.10;42.86;;
76217;Laerm;65010;50.190;18.930;2024-02-21T16:43:15;39.27;35.24;42.59;;
76217;Laerm;65010;50.190;18.930;2024-02-21T16:46:24;39.33;35.09;42.58;;
76217;Laerm;65010;50.190;18.930;2024-02-21T16:49:31;39.34;34.86;43.03;;
76217;Laerm;65010;50.190;18.930;2024-02-21T16:52:39;39.33;35.15;42.58;;
76217;Laerm;65010;50.190;18.930;2024-02-21T16:55:46;39.25;35.18;42.61;;
76217;Laerm;65010;50.190;18.930;2024-02-21T16:58:53;39.27;34.86;42.61;;
76217;Laerm;65010;50.190;18.930;2024-02-21T17:02:01;39.22;34.91;42.68;;
76217;Laerm;65010;50.190;18.930;2024-02-21T17:05:09;39.22;35.07;42.66;;
76217;Laerm;65010;50.190;18.930;2024-02-21T17:08:16;40.58;35.24;43.47;;
76217;Laerm;65010;50.190;18.930;2024-02-21T17:11:22;41.15;35.26;43.22;;
76217;Laerm;65010;50.190;18.930;2024-02-21T17:14:28;41.12;35.32;43.55;;